Terminal Aerodrome Forecast
Issued by NWS Jacksonville, FL

Home | Current Version | Previous Version | Text Only | Print | Product List | Glossary On
Versions: 1 2 3 4 5 6 7 8 9 10 11 12 13 14 15 16
000
FTUS42 KJAX 261100
TAFGNV
TAF
KGNV 261120Z 2612/2712 24004KT P6SM FEW025 BKN250
     FM261500 25008KT P6SM VCTS SCT030CB BKN250
     FM262300 25008KT P6SM SCT040 SCT080 BKN250=

USA.gov is the U.S. government's official web portal to all federal, state and local government web resources and services.